Terminal Aerodrome Forecast
Issued by NWS

Home | Current Version | Previous Version | Text Only | Print | Product List | Glossary On
Versions: 1 2 3 4 5 6 7 8 9 10 11 12 13 14 15 16 17 18 19 20 21 22 23 24 25 26 27 28 29
203
FTUS42 KCAE 260217 AAA
TAFCUB
TAF AMD
KCUB 260217Z 2602/2624 VRB04KT P6SM SCT060 BKN120
     FM260900 VRB03KT 5SM BR BKN020
     FM261400 16007KT P6SM BKN025
     FM261800 16009G15KT P6SM VCSH BKN030 OVC040=

USA.gov is the U.S. government's official web portal to all federal, state and local government web resources and services.